sensor_id;sensor_type;location;lat;lon;timestamp;P1;durP1;ratioP1;P2;durP2;ratioP2
52894;SDS011;38759;53.396;6.722;2023-04-03T00:01:30;5.80;;;0.90;;
52894;SDS011;38759;53.396;6.722;2023-04-03T00:03:55;4.32;;;0.80;;
52894;SDS011;38759;53.396;6.722;2023-04-03T00:06:22;2.25;;;0.70;;
52894;SDS011;38759;53.396;6.722;2023-04-03T00:08:48;1.88;;;1.05;;
52894;SDS011;38759;53.396;6.722;2023-04-03T00:11:14;1.92;;;0.65;;
52894;SDS011;38759;53.396;6.722;2023-04-03T00:13:41;5.40;;;0.68;;
52894;SDS011;38759;53.396;6.722;2023-04-03T00:16:08;3.00;;;0.63;;
52894;SDS011;38759;53.396;6.722;2023-04-03T00:18:34;1.25;;;0.70;;
52894;SDS011;38759;53.396;6.722;2023-04-03T00:21:00;1.33;;;0.60;;
52894;SDS011;38759;53.396;6.722;2023-04-03T00:23:26;2.70;;;0.75;;
52894;SDS011;38759;53.396;6.722;2023-04-03T00:25:52;5.72;;;1.35;;
52894;SDS011;38759;53.396;6.722;2023-04-03T00:28:18;1.80;;;0.80;;
52894;SDS011;38759;53.396;6.722;2023-04-03T00:30:44;3.70;;;0.82;;
52894;SDS011;38759;53.396;6.722;2023-04-03T00:33:13;1.60;;;0.77;;
52894;SDS011;38759;53.396;6.722;2023-04-03T00:35:39;1.27;;;0.70;;
52894;SDS011;38759;53.396;6.722;2023-04-03T00:38:05;5.55;;;1.00;;
52894;SDS011;38759;53.396;6.722;2023-04-03T00:40:35;2.72;;;0.73;;
52894;SDS011;38759;53.396;6.722;2023-04-03T00:43:05;2.90;;;0.85;;
52894;SDS011;38759;53.396;6.722;2023-04-03T00:45:41;4.85;;;0.85;;
52894;SDS011;38759;53.396;6.722;2023-04-03T00:48:10;1.85;;;1.00;;
52894;SDS011;38759;53.396;6.722;2023-04-03T00:50:41;2.50;;;0.90;;
52894;SDS011;38759;53.396;6.722;2023-04-03T00:53:08;2.38;;;0.90;;
52894;SDS011;38759;53.396;6.722;2023-04-03T00:55:39;1.17;;;0.75;;
52894;SDS011;38759;53.396;6.722;2023-04-03T00:58:07;3.30;;;0.88;;
52894;SDS011;38759;53.396;6.722;2023-04-03T01:00:35;1.42;;;0.70;;
52894;SDS011;38759;53.396;6.722;2023-04-03T01:03:03;1.27;;;0.80;;
52894;SDS011;38759;53.396;6.722;2023-04-03T01:05:29;1.15;;;0.80;;
52894;SDS011;38759;53.396;6.722;2023-04-03T01:07:55;2.47;;;0.85;;
52894;SDS011;38759;53.396;6.722;2023-04-03T01:10:23;4.07;;;1.00;;
52894;SDS011;38759;53.396;6.722;2023-04-03T01:12:50;5.30;;;1.25;;
52894;SDS011;38759;53.396;6.722;2023-04-03T01:15:21;5.28;;;1.02;;
52894;SDS011;38759;53.396;6.722;2023-04-03T01:17:58;3.70;;;0.85;;
52894;SDS011;38759;53.396;6.722;2023-04-03T01:25:40;1.77;;;0.88;;
52894;SDS011;38759;53.396;6.722;2023-04-03T01:28:09;3.38;;;1.38;;
52894;SDS011;38759;53.396;6.722;2023-04-03T01:30:45;2.17;;;0.90;;
52894;SDS011;38759;53.396;6.722;2023-04-03T01:33:21;6.38;;;1.13;;
52894;SDS011;38759;53.396;6.722;2023-04-03T01:35:47;5.38;;;0.73;;
52894;SDS011;38759;53.396;6.722;2023-04-03T01:38:12;3.13;;;0.90;;
52894;SDS011;38759;53.396;6.722;2023-04-03T01:40:38;4.65;;;1.08;;
52894;SDS011;38759;53.396;6.722;2023-04-03T01:43:04;2.22;;;0.98;;
52894;SDS011;38759;53.396;6.722;2023-04-03T01:45:30;5.68;;;1.20;;
52894;SDS011;38759;53.396;6.722;2023-04-03T01:47:56;4.47;;;1.08;;
52894;SDS011;38759;53.396;6.722;2023-04-03T01:50:21;7.28;;;1.42;;
52894;SDS011;38759;53.396;6.722;2023-04-03T01:52:47;3.33;;;1.17;;
52894;SDS011;38759;53.396;6.722;2023-04-03T01:55:12;2.42;;;1.10;;
52894;SDS011;38759;53.396;6.722;2023-04-03T01:57:38;4.15;;;1.02;;
52894;SDS011;38759;53.396;6.722;2023-04-03T02:00:04;2.42;;;0.88;;
52894;SDS011;38759;53.396;6.722;2023-04-03T02:02:30;5.75;;;1.13;;
52894;SDS011;38759;53.396;6.722;2023-04-03T02:04:56;6.68;;;1.40;;
52894;SDS011;38759;53.396;6.722;2023-04-03T02:07:21;1.98;;;1.00;;
52894;SDS011;38759;53.396;6.722;2023-04-03T02:09:47;6.43;;;1.70;;
52894;SDS011;38759;53.396;6.722;2023-04-03T02:12:13;6.00;;;1.30;;
52894;SDS011;38759;53.396;6.722;2023-04-03T02:14:38;5.05;;;0.90;;
52894;SDS011;38759;53.396;6.722;2023-04-03T02:17:04;7.28;;;2.55;;
52894;SDS011;38759;53.396;6.722;2023-04-03T02:19:33;4.47;;;1.10;;
52894;SDS011;38759;53.396;6.722;2023-04-03T02:22:03;3.45;;;1.10;;
52894;SDS011;38759;53.396;6.722;2023-04-03T02:24:29;5.03;;;1.20;;
52894;SDS011;38759;53.396;6.722;2023-04-03T02:26:55;6.82;;;1.23;;
52894;SDS011;38759;53.396;6.722;2023-04-03T02:29:20;6.65;;;1.40;;
52894;SDS011;38759;53.396;6.722;2023-04-03T02:31:46;3.10;;;1.20;;
52894;SDS011;38759;53.396;6.722;2023-04-03T02:34:12;7.40;;;1.45;;
52894;SDS011;38759;53.396;6.722;2023-04-03T02:36:38;5.20;;;1.05;;
52894;SDS011;38759;53.396;6.722;2023-04-03T02:39:04;4.32;;;1.20;;
52894;SDS011;38759;53.396;6.722;2023-04-03T02:41:30;2.55;;;1.10;;
52894;SDS011;38759;53.396;6.722;2023-04-03T02:44:03;3.17;;;1.08;;
52894;SDS011;38759;53.396;6.722;2023-04-03T02:46:30;7.88;;;1.10;;
52894;SDS011;38759;53.396;6.722;2023-04-03T02:48:56;8.68;;;1.27;;
52894;SDS011;38759;53.396;6.722;2023-04-03T02:51:22;7.93;;;1.20;;
52894;SDS011;38759;53.396;6.722;2023-04-03T02:53:50;4.80;;;1.15;;
52894;SDS011;38759;53.396;6.722;2023-04-03T02:56:16;6.38;;;1.40;;
52894;SDS011;38759;53.396;6.722;2023-04-03T02:58:43;10.43;;;2.15;;
52894;SDS011;38759;53.396;6.722;2023-04-03T03:01:09;2.83;;;1.20;;
52894;SDS011;38759;53.396;6.722;2023-04-03T03:03:35;7.60;;;1.25;;
52894;SDS011;38759;53.396;6.722;2023-04-03T03:06:02;10.43;;;1.52;;
52894;SDS011;38759;53.396;6.722;2023-04-03T03:08:36;3.70;;;0.98;;
52894;SDS011;38759;53.396;6.722;2023-04-03T03:11:02;8.13;;;1.33;;
52894;SDS011;38759;53.396;6.722;2023-04-03T03:13:28;2.70;;;1.40;;
52894;SDS011;38759;53.396;6.722;2023-04-03T03:15:55;4.05;;;1.23;;
52894;SDS011;38759;53.396;6.722;2023-04-03T03:18:21;4.93;;;1.15;;
52894;SDS011;38759;53.396;6.722;2023-04-03T03:20:50;6.75;;;1.23;;
52894;SDS011;38759;53.396;6.722;2023-04-03T03:23:20;3.72;;;1.20;;
52894;SDS011;38759;53.396;6.722;2023-04-03T03:25:47;4.72;;;1.98;;
52894;SDS011;38759;53.396;6.722;2023-04-03T03:28:12;3.75;;;1.50;;
52894;SDS011;38759;53.396;6.722;2023-04-03T03:30:38;4.75;;;1.75;;
52894;SDS011;38759;53.396;6.722;2023-04-03T03:33:04;6.43;;;1.55;;
52894;SDS011;38759;53.396;6.722;2023-04-03T03:35:30;5.22;;;1.50;;
52894;SDS011;38759;53.396;6.722;2023-04-03T03:37:55;9.30;;;1.35;;
52894;SDS011;38759;53.396;6.722;2023-04-03T03:40:21;3.45;;;1.15;;
52894;SDS011;38759;53.396;6.722;2023-04-03T03:42:47;5.40;;;1.38;;
52894;SDS011;38759;53.396;6.722;2023-04-03T03:45:12;6.60;;;1.52;;
52894;SDS011;38759;53.396;6.722;2023-04-03T03:47:38;3.95;;;1.42;;
52894;SDS011;38759;53.396;6.722;2023-04-03T03:50:05;4.00;;;1.38;;
52894;SDS011;38759;53.396;6.722;2023-04-03T03:52:31;4.53;;;1.60;;
52894;SDS011;38759;53.396;6.722;2023-04-03T03:54:57;10.02;;;1.70;;
52894;SDS011;38759;53.396;6.722;2023-04-03T03:57:22;4.22;;;1.30;;
52894;SDS011;38759;53.396;6.722;2023-04-03T03:59:48;8.45;;;1.42;;
52894;SDS011;38759;53.396;6.722;2023-04-03T04:02:15;7.15;;;1.50;;
52894;SDS011;38759;53.396;6.722;2023-04-03T04:04:41;5.90;;;1.40;;
52894;SDS011;38759;53.396;6.722;2023-04-03T04:07:07;8.18;;;1.75;;
52894;SDS011;38759;53.396;6.722;2023-04-03T04:09:32;3.63;;;1.50;;
52894;SDS011;38759;53.396;6.722;2023-04-03T04:11:58;7.72;;;1.83;;
52894;SDS011;38759;53.396;6.722;2023-04-03T04:14:24;2.65;;;1.10;;
52894;SDS011;38759;53.396;6.722;2023-04-03T04:16:49;5.15;;;1.70;;
52894;SDS011;38759;53.396;6.722;2023-04-03T04:19:15;8.10;;;1.45;;
52894;SDS011;38759;53.396;6.722;2023-04-03T04:21:40;6.65;;;1.98;;
52894;SDS011;38759;53.396;6.722;2023-04-03T04:24:07;4.72;;;1.40;;
52894;SDS011;38759;53.396;6.722;2023-04-03T04:26:33;5.47;;;1.70;;
52894;SDS011;38759;53.396;6.722;2023-04-03T04:28:59;4.28;;;1.50;;
52894;SDS011;38759;53.396;6.722;2023-04-03T04:31:25;9.43;;;1.70;;
52894;SDS011;38759;53.396;6.722;2023-04-03T04:33:51;3.75;;;1.60;;
52894;SDS011;38759;53.396;6.722;2023-04-03T04:36:17;7.50;;;1.58;;
52894;SDS011;38759;53.396;6.722;2023-04-03T04:38:43;7.43;;;1.83;;
52894;SDS011;38759;53.396;6.722;2023-04-03T04:41:09;6.38;;;1.90;;
52894;SDS011;38759;53.396;6.722;2023-04-03T04:43:35;3.95;;;1.73;;
52894;SDS011;38759;53.396;6.722;2023-04-03T04:46:04;6.25;;;1.90;;
52894;SDS011;38759;53.396;6.722;2023-04-03T04:48:32;4.50;;;1.67;;
52894;SDS011;38759;53.396;6.722;2023-04-03T04:50:58;4.03;;;1.80;;
52894;SDS011;38759;53.396;6.722;2023-04-03T04:53:24;10.57;;;2.20;;
52894;SDS011;38759;53.396;6.722;2023-04-03T04:55:50;2.53;;;1.45;;
52894;SDS011;38759;53.396;6.722;2023-04-03T04:58:16;8.48;;;2.38;;
52894;SDS011;38759;53.396;6.722;2023-04-03T05:00:42;9.30;;;2.25;;
52894;SDS011;38759;53.396;6.722;2023-04-03T05:03:08;8.48;;;1.90;;
52894;SDS011;38759;53.396;6.722;2023-04-03T05:05:34;5.40;;;1.73;;
52894;SDS011;38759;53.396;6.722;2023-04-03T05:08:00;14.50;;;2.10;;
52894;SDS011;38759;53.396;6.722;2023-04-03T05:10:27;11.75;;;1.63;;
52894;SDS011;38759;53.396;6.722;2023-04-03T05:12:53;6.50;;;1.63;;
52894;SDS011;38759;53.396;6.722;2023-04-03T05:15:19;6.00;;;1.52;;
52894;SDS011;38759;53.396;6.722;2023-04-03T05:17:45;4.05;;;1.70;;
52894;SDS011;38759;53.396;6.722;2023-04-03T05:20:11;3.90;;;1.90;;
52894;SDS011;38759;53.396;6.722;2023-04-03T05:22:37;4.05;;;1.73;;
52894;SDS011;38759;53.396;6.722;2023-04-03T05:25:03;7.97;;;1.50;;
52894;SDS011;38759;53.396;6.722;2023-04-03T05:27:29;5.18;;;2.03;;
52894;SDS011;38759;53.396;6.722;2023-04-03T05:29:55;4.32;;;1.55;;
52894;SDS011;38759;53.396;6.722;2023-04-03T05:32:21;9.18;;;1.95;;
52894;SDS011;38759;53.396;6.722;2023-04-03T05:34:47;4.03;;;1.60;;
52894;SDS011;38759;53.396;6.722;2023-04-03T05:37:13;5.97;;;2.08;;
52894;SDS011;38759;53.396;6.722;2023-04-03T05:39:39;16.23;;;2.03;;
52894;SDS011;38759;53.396;6.722;2023-04-03T05:42:06;9.45;;;2.33;;
52894;SDS011;38759;53.396;6.722;2023-04-03T05:44:32;5.63;;;1.77;;
52894;SDS011;38759;53.396;6.722;2023-04-03T05:46:58;4.53;;;1.90;;
52894;SDS011;38759;53.396;6.722;2023-04-03T05:49:24;4.88;;;1.60;;
52894;SDS011;38759;53.396;6.722;2023-04-03T05:51:50;8.38;;;2.13;;
52894;SDS011;38759;53.396;6.722;2023-04-03T05:54:24;5.65;;;1.80;;
52894;SDS011;38759;53.396;6.722;2023-04-03T05:56:51;7.78;;;2.10;;
52894;SDS011;38759;53.396;6.722;2023-04-03T05:59:17;5.40;;;2.20;;
52894;SDS011;38759;53.396;6.722;2023-04-03T06:01:43;11.75;;;2.13;;
52894;SDS011;38759;53.396;6.722;2023-04-03T06:04:09;12.07;;;2.75;;
52894;SDS011;38759;53.396;6.722;2023-04-03T06:09:16;11.35;;;2.08;;
52894;SDS011;38759;53.396;6.722;2023-04-03T06:11:44;5.53;;;1.80;;
52894;SDS011;38759;53.396;6.722;2023-04-03T06:14:09;4.03;;;2.00;;
52894;SDS011;38759;53.396;6.722;2023-04-03T06:16:36;12.20;;;2.10;;
52894;SDS011;38759;53.396;6.722;2023-04-03T06:19:02;6.50;;;1.92;;
52894;SDS011;38759;53.396;6.722;2023-04-03T06:21:29;8.32;;;2.60;;
52894;SDS011;38759;53.396;6.722;2023-04-03T06:23:55;13.88;;;3.20;;
52894;SDS011;38759;53.396;6.722;2023-04-03T06:26:21;7.68;;;2.30;;
52894;SDS011;38759;53.396;6.722;2023-04-03T06:28:47;5.00;;;2.28;;
52894;SDS011;38759;53.396;6.722;2023-04-03T06:31:13;8.45;;;2.15;;
52894;SDS011;38759;53.396;6.722;2023-04-03T06:33:38;5.65;;;2.00;;
52894;SDS011;38759;53.396;6.722;2023-04-03T06:36:04;6.47;;;2.10;;
52894;SDS011;38759;53.396;6.722;2023-04-03T06:38:32;11.98;;;2.17;;
52894;SDS011;38759;53.396;6.722;2023-04-03T06:40:58;9.48;;;2.38;;
52894;SDS011;38759;53.396;6.722;2023-04-03T06:43:25;5.80;;;2.25;;
52894;SDS011;38759;53.396;6.722;2023-04-03T06:45:51;3.67;;;1.88;;
52894;SDS011;38759;53.396;6.722;2023-04-03T06:48:17;7.82;;;2.30;;
52894;SDS011;38759;53.396;6.722;2023-04-03T06:50:43;7.70;;;2.20;;
52894;SDS011;38759;53.396;6.722;2023-04-03T06:53:08;8.75;;;1.90;;
52894;SDS011;38759;53.396;6.722;2023-04-03T06:55:34;9.85;;;2.33;;
52894;SDS011;38759;53.396;6.722;2023-04-03T06:58:00;10.43;;;2.17;;
52894;SDS011;38759;53.396;6.722;2023-04-03T07:00:27;5.57;;;1.92;;
52894;SDS011;38759;53.396;6.722;2023-04-03T07:02:52;7.10;;;2.15;;
52894;SDS011;38759;53.396;6.722;2023-04-03T07:05:18;6.05;;;1.90;;
52894;SDS011;38759;53.396;6.722;2023-04-03T07:07:44;6.18;;;1.90;;
52894;SDS011;38759;53.396;6.722;2023-04-03T07:10:10;9.10;;;1.83;;
52894;SDS011;38759;53.396;6.722;2023-04-03T07:12:36;6.35;;;2.10;;
52894;SDS011;38759;53.396;6.722;2023-04-03T07:15:03;5.78;;;1.98;;
52894;SDS011;38759;53.396;6.722;2023-04-03T07:17:30;10.18;;;2.20;;
52894;SDS011;38759;53.396;6.722;2023-04-03T07:19:56;8.82;;;2.65;;
52894;SDS011;38759;53.396;6.722;2023-04-03T07:22:22;9.88;;;2.33;;
52894;SDS011;38759;53.396;6.722;2023-04-03T07:24:47;6.18;;;2.17;;
52894;SDS011;38759;53.396;6.722;2023-04-03T07:27:13;6.07;;;2.08;;
52894;SDS011;38759;53.396;6.722;2023-04-03T07:29:39;6.78;;;2.17;;
52894;SDS011;38759;53.396;6.722;2023-04-03T07:32:05;7.47;;;2.22;;
52894;SDS011;38759;53.396;6.722;2023-04-03T07:34:31;6.07;;;1.88;;
52894;SDS011;38759;53.396;6.722;2023-04-03T07:36:57;6.90;;;2.30;;
52894;SDS011;38759;53.396;6.722;2023-04-03T07:39:23;8.18;;;1.90;;
52894;SDS011;38759;53.396;6.722;2023-04-03T07:41:49;6.28;;;1.98;;
52894;SDS011;38759;53.396;6.722;2023-04-03T07:44:15;14.10;;;2.28;;
52894;SDS011;38759;53.396;6.722;2023-04-03T07:46:41;6.25;;;1.70;;
52894;SDS011;38759;53.396;6.722;2023-04-03T07:49:07;7.88;;;2.67;;
52894;SDS011;38759;53.396;6.722;2023-04-03T07:51:33;10.18;;;2.50;;
52894;SDS011;38759;53.396;6.722;2023-04-03T07:53:59;6.50;;;1.85;;
52894;SDS011;38759;53.396;6.722;2023-04-03T07:56:25;6.18;;;2.20;;
52894;SDS011;38759;53.396;6.722;2023-04-03T07:58:50;8.70;;;2.13;;
52894;SDS011;38759;53.396;6.722;2023-04-03T08:01:16;4.03;;;1.90;;
52894;SDS011;38759;53.396;6.722;2023-04-03T08:03:42;8.32;;;1.90;;
52894;SDS011;38759;53.396;6.722;2023-04-03T08:06:08;6.20;;;2.03;;
52894;SDS011;38759;53.396;6.722;2023-04-03T08:08:34;5.00;;;1.70;;
52894;SDS011;38759;53.396;6.722;2023-04-03T08:11:00;6.60;;;1.98;;
52894;SDS011;38759;53.396;6.722;2023-04-03T08:13:27;6.47;;;1.90;;
52894;SDS011;38759;53.396;6.722;2023-04-03T08:15:53;7.30;;;1.63;;
52894;SDS011;38759;53.396;6.722;2023-04-03T08:18:20;7.57;;;1.80;;
52894;SDS011;38759;53.396;6.722;2023-04-03T08:20:49;9.75;;;2.10;;
52894;SDS011;38759;53.396;6.722;2023-04-03T08:23:16;5.75;;;1.80;;
52894;SDS011;38759;53.396;6.722;2023-04-03T08:25:43;5.80;;;2.20;;
52894;SDS011;38759;53.396;6.722;2023-04-03T08:28:10;6.05;;;1.75;;
52894;SDS011;38759;53.396;6.722;2023-04-03T08:30:38;9.13;;;1.88;;
52894;SDS011;38759;53.396;6.722;2023-04-03T08:33:05;3.70;;;1.40;;
52894;SDS011;38759;53.396;6.722;2023-04-03T08:35:31;6.10;;;1.55;;
52894;SDS011;38759;53.396;6.722;2023-04-03T08:37:56;7.88;;;1.88;;
52894;SDS011;38759;53.396;6.722;2023-04-03T08:40:22;4.18;;;1.60;;
52894;SDS011;38759;53.396;6.722;2023-04-03T08:45:52;4.20;;;1.50;;
52894;SDS011;38759;53.396;6.722;2023-04-03T08:48:26;6.60;;;1.60;;
52894;SDS011;38759;53.396;6.722;2023-04-03T08:51:00;7.20;;;1.85;;
52894;SDS011;38759;53.396;6.722;2023-04-03T08:53:32;4.40;;;1.40;;
52894;SDS011;38759;53.396;6.722;2023-04-03T08:56:02;7.13;;;2.10;;
52894;SDS011;38759;53.396;6.722;2023-04-03T08:58:33;10.02;;;1.63;;
52894;SDS011;38759;53.396;6.722;2023-04-03T09:01:20;4.75;;;1.67;;
52894;SDS011;38759;53.396;6.722;2023-04-03T09:03:57;4.32;;;1.48;;
52894;SDS011;38759;53.396;6.722;2023-04-03T09:06:25;7.13;;;1.70;;
52894;SDS011;38759;53.396;6.722;2023-04-03T09:11:32;4.88;;;1.60;;
52894;SDS011;38759;53.396;6.722;2023-04-03T09:17:09;3.40;;;1.85;;
52894;SDS011;38759;53.396;6.722;2023-04-03T09:20:10;4.53;;;1.60;;
52894;SDS011;38759;53.396;6.722;2023-04-03T09:22:49;5.72;;;2.42;;
52894;SDS011;38759;53.396;6.722;2023-04-03T09:27:52;4.07;;;1.60;;
52894;SDS011;38759;53.396;6.722;2023-04-03T09:30:22;6.68;;;2.53;;
52894;SDS011;38759;53.396;6.722;2023-04-03T09:32:50;7.60;;;1.77;;
52894;SDS011;38759;53.396;6.722;2023-04-03T09:35:27;3.53;;;1.30;;
52894;SDS011;38759;53.396;6.722;2023-04-03T09:38:14;3.92;;;1.50;;
52894;SDS011;38759;53.396;6.722;2023-04-03T09:40:46;5.95;;;1.67;;
52894;SDS011;38759;53.396;6.722;2023-04-03T09:46:16;6.70;;;1.42;;
52894;SDS011;38759;53.396;6.722;2023-04-03T09:48:50;9.02;;;1.60;;
52894;SDS011;38759;53.396;6.722;2023-04-03T09:51:17;4.03;;;1.48;;
52894;SDS011;38759;53.396;6.722;2023-04-03T09:53:43;3.75;;;1.40;;
52894;SDS011;38759;53.396;6.722;2023-04-03T09:58:45;3.42;;;0.90;;
52894;SDS011;38759;53.396;6.722;2023-04-03T10:01:30;4.68;;;1.00;;
52894;SDS011;38759;53.396;6.722;2023-04-03T10:06:30;2.05;;;0.98;;
52894;SDS011;38759;53.396;6.722;2023-04-03T10:09:03;1.13;;;0.77;;
52894;SDS011;38759;53.396;6.722;2023-04-03T10:11:56;2.83;;;0.70;;
52894;SDS011;38759;53.396;6.722;2023-04-03T10:14:26;1.45;;;0.40;;
52894;SDS011;38759;53.396;6.722;2023-04-03T10:17:02;2.42;;;0.60;;
52894;SDS011;38759;53.396;6.722;2023-04-03T10:30:33;3.38;;;0.93;;
52894;SDS011;38759;53.396;6.722;2023-04-03T10:33:18;2.25;;;0.90;;
52894;SDS011;38759;53.396;6.722;2023-04-03T10:41:59;2.80;;;0.93;;
52894;SDS011;38759;53.396;6.722;2023-04-03T10:47:16;3.20;;;1.10;;
52894;SDS011;38759;53.396;6.722;2023-04-03T10:55:50;3.47;;;1.08;;
52894;SDS011;38759;53.396;6.722;2023-04-03T10:58:46;4.40;;;1.25;;
52894;SDS011;38759;53.396;6.722;2023-04-03T11:01:20;3.20;;;1.10;;
52894;SDS011;38759;53.396;6.722;2023-04-03T11:03:51;4.10;;;1.23;;
52894;SDS011;38759;53.396;6.722;2023-04-03T11:06:22;2.25;;;0.80;;
52894;SDS011;38759;53.396;6.722;2023-04-03T11:08:56;2.72;;;1.70;;
52894;SDS011;38759;53.396;6.722;2023-04-03T11:11:29;2.72;;;1.10;;
52894;SDS011;38759;53.396;6.722;2023-04-03T11:16:58;4.13;;;1.55;;
52894;SDS011;38759;53.396;6.722;2023-04-03T11:19:32;4.03;;;1.60;;
52894;SDS011;38759;53.396;6.722;2023-04-03T11:35:59;2.83;;;1.40;;
52894;SDS011;38759;53.396;6.722;2023-04-03T11:38:43;2.88;;;1.20;;
52894;SDS011;38759;53.396;6.722;2023-04-03T11:41:12;3.75;;;1.70;;
52894;SDS011;38759;53.396;6.722;2023-04-03T11:43:42;4.13;;;1.50;;
52894;SDS011;38759;53.396;6.722;2023-04-03T12:05:55;4.65;;;1.50;;
52894;SDS011;38759;53.396;6.722;2023-04-03T12:13:43;6.53;;;1.50;;
52894;SDS011;38759;53.396;6.722;2023-04-03T12:40:37;3.63;;;1.50;;
52894;SDS011;38759;53.396;6.722;2023-04-03T12:43:10;6.53;;;1.85;;
52894;SDS011;38759;53.396;6.722;2023-04-03T12:48:06;6.18;;;1.80;;
52894;SDS011;38759;53.396;6.722;2023-04-03T12:50:40;3.90;;;1.70;;
52894;SDS011;38759;53.396;6.722;2023-04-03T12:53:16;4.05;;;1.52;;
52894;SDS011;38759;53.396;6.722;2023-04-03T12:55:55;5.88;;;1.63;;
52894;SDS011;38759;53.396;6.722;2023-04-03T12:58:26;3.08;;;1.60;;
52894;SDS011;38759;53.396;6.722;2023-04-03T13:01:03;2.80;;;1.55;;
52894;SDS011;38759;53.396;6.722;2023-04-03T13:03:38;4.32;;;1.70;;
52894;SDS011;38759;53.396;6.722;2023-04-03T13:06:06;3.03;;;1.40;;
52894;SDS011;38759;53.396;6.722;2023-04-03T13:08:32;3.05;;;1.20;;
52894;SDS011;38759;53.396;6.722;2023-04-03T13:11:08;3.83;;;1.40;;
52894;SDS011;38759;53.396;6.722;2023-04-03T13:13:37;2.60;;;1.70;;
52894;SDS011;38759;53.396;6.722;2023-04-03T13:16:08;3.65;;;1.48;;
52894;SDS011;38759;53.396;6.722;2023-04-03T13:18:35;3.58;;;1.48;;
52894;SDS011;38759;53.396;6.722;2023-04-03T13:21:06;3.25;;;1.30;;
52894;SDS011;38759;53.396;6.722;2023-04-03T13:23:39;3.67;;;1.00;;
52894;SDS011;38759;53.396;6.722;2023-04-03T13:26:10;3.50;;;1.20;;
52894;SDS011;38759;53.396;6.722;2023-04-03T13:28:37;4.00;;;1.27;;
52894;SDS011;38759;53.396;6.722;2023-04-03T13:33:39;3.78;;;0.90;;
52894;SDS011;38759;53.396;6.722;2023-04-03T13:36:26;4.72;;;1.10;;
52894;SDS011;38759;53.396;6.722;2023-04-03T13:39:00;2.20;;;1.02;;
52894;SDS011;38759;53.396;6.722;2023-04-03T13:41:56;1.73;;;0.88;;
52894;SDS011;38759;53.396;6.722;2023-04-03T13:47:14;3.42;;;1.20;;
52894;SDS011;38759;53.396;6.722;2023-04-03T13:52:34;3.20;;;1.15;;
52894;SDS011;38759;53.396;6.722;2023-04-03T13:57:49;3.70;;;1.13;;
52894;SDS011;38759;53.396;6.722;2023-04-03T14:00:28;2.85;;;1.20;;
52894;SDS011;38759;53.396;6.722;2023-04-03T14:02:55;4.28;;;1.30;;
52894;SDS011;38759;53.396;6.722;2023-04-03T14:05:22;3.67;;;1.20;;
52894;SDS011;38759;53.396;6.722;2023-04-03T14:07:50;3.25;;;1.10;;
52894;SDS011;38759;53.396;6.722;2023-04-03T14:10:16;5.75;;;1.20;;
52894;SDS011;38759;53.396;6.722;2023-04-03T14:12:42;2.95;;;1.15;;
52894;SDS011;38759;53.396;6.722;2023-04-03T14:15:18;3.15;;;1.20;;
52894;SDS011;38759;53.396;6.722;2023-04-03T14:17:49;3.60;;;1.00;;
52894;SDS011;38759;53.396;6.722;2023-04-03T14:20:17;3.10;;;1.20;;
52894;SDS011;38759;53.396;6.722;2023-04-03T14:22:45;2.88;;;1.10;;
52894;SDS011;38759;53.396;6.722;2023-04-03T14:25:11;2.95;;;0.80;;
52894;SDS011;38759;53.396;6.722;2023-04-03T14:27:38;4.63;;;1.10;;
52894;SDS011;38759;53.396;6.722;2023-04-03T14:30:07;2.30;;;1.00;;
52894;SDS011;38759;53.396;6.722;2023-04-03T14:32:37;4.07;;;1.23;;
52894;SDS011;38759;53.396;6.722;2023-04-03T14:35:03;3.35;;;1.00;;
52894;SDS011;38759;53.396;6.722;2023-04-03T14:37:29;2.58;;;0.88;;
52894;SDS011;38759;53.396;6.722;2023-04-03T14:39:58;2.80;;;1.10;;
52894;SDS011;38759;53.396;6.722;2023-04-03T14:42:29;1.25;;;0.90;;
52894;SDS011;38759;53.396;6.722;2023-04-03T14:44:57;2.78;;;0.95;;
52894;SDS011;38759;53.396;6.722;2023-04-03T14:47:25;1.75;;;0.63;;
52894;SDS011;38759;53.396;6.722;2023-04-03T14:49:52;1.70;;;0.85;;
52894;SDS011;38759;53.396;6.722;2023-04-03T14:52:23;2.70;;;1.05;;
52894;SDS011;38759;53.396;6.722;2023-04-03T14:54:56;4.13;;;0.98;;
52894;SDS011;38759;53.396;6.722;2023-04-03T14:57:23;3.95;;;0.93;;
52894;SDS011;38759;53.396;6.722;2023-04-03T14:59:51;1.77;;;0.80;;
52894;SDS011;38759;53.396;6.722;2023-04-03T15:04:45;1.85;;;0.98;;
52894;SDS011;38759;53.396;6.722;2023-04-03T15:07:11;1.80;;;0.93;;
52894;SDS011;38759;53.396;6.722;2023-04-03T15:09:37;4.18;;;0.70;;
52894;SDS011;38759;53.396;6.722;2023-04-03T15:12:02;2.47;;;0.73;;
52894;SDS011;38759;53.396;6.722;2023-04-03T15:14:28;4.57;;;1.20;;
52894;SDS011;38759;53.396;6.722;2023-04-03T15:16:54;3.63;;;1.00;;
52894;SDS011;38759;53.396;6.722;2023-04-03T15:19:20;2.75;;;1.38;;
52894;SDS011;38759;53.396;6.722;2023-04-03T15:21:45;4.90;;;1.30;;
52894;SDS011;38759;53.396;6.722;2023-04-03T15:24:11;3.42;;;0.77;;
52894;SDS011;38759;53.396;6.722;2023-04-03T15:26:37;5.30;;;1.00;;
52894;SDS011;38759;53.396;6.722;2023-04-03T15:29:03;1.55;;;0.80;;
52894;SDS011;38759;53.396;6.722;2023-04-03T15:31:29;4.75;;;1.33;;
52894;SDS011;38759;53.396;6.722;2023-04-03T15:33:56;2.90;;;1.20;;
52894;SDS011;38759;53.396;6.722;2023-04-03T15:36:22;3.60;;;1.40;;
52894;SDS011;38759;53.396;6.722;2023-04-03T15:38:47;1.75;;;0.98;;
52894;SDS011;38759;53.396;6.722;2023-04-03T15:41:13;4.00;;;1.50;;
52894;SDS011;38759;53.396;6.722;2023-04-03T15:43:39;3.20;;;0.90;;
52894;SDS011;38759;53.396;6.722;2023-04-03T15:46:05;6.90;;;1.30;;
52894;SDS011;38759;53.396;6.722;2023-04-03T15:48:30;3.20;;;1.15;;
52894;SDS011;38759;53.396;6.722;2023-04-03T15:50:56;2.53;;;1.02;;
52894;SDS011;38759;53.396;6.722;2023-04-03T15:53:22;4.15;;;1.17;;
52894;SDS011;38759;53.396;6.722;2023-04-03T15:55:48;2.78;;;0.88;;
52894;SDS011;38759;53.396;6.722;2023-04-03T15:58:13;5.68;;;1.35;;
52894;SDS011;38759;53.396;6.722;2023-04-03T16:00:39;6.15;;;1.48;;
52894;SDS011;38759;53.396;6.722;2023-04-03T16:03:07;3.70;;;1.13;;
52894;SDS011;38759;53.396;6.722;2023-04-03T16:05:36;3.35;;;0.80;;
52894;SDS011;38759;53.396;6.722;2023-04-03T16:08:03;3.78;;;1.23;;
52894;SDS011;38759;53.396;6.722;2023-04-03T16:10:30;4.70;;;1.00;;
52894;SDS011;38759;53.396;6.722;2023-04-03T16:12:56;3.83;;;1.10;;
52894;SDS011;38759;53.396;6.722;2023-04-03T16:15:22;1.67;;;0.77;;
52894;SDS011;38759;53.396;6.722;2023-04-03T16:17:49;3.20;;;1.40;;
52894;SDS011;38759;53.396;6.722;2023-04-03T16:20:15;2.72;;;0.88;;
52894;SDS011;38759;53.396;6.722;2023-04-03T16:22:41;4.00;;;0.93;;
52894;SDS011;38759;53.396;6.722;2023-04-03T16:25:08;3.35;;;0.90;;
52894;SDS011;38759;53.396;6.722;2023-04-03T16:27:34;3.65;;;1.00;;
52894;SDS011;38759;53.396;6.722;2023-04-03T16:30:00;3.83;;;1.55;;
52894;SDS011;38759;53.396;6.722;2023-04-03T16:32:27;3.00;;;0.82;;
52894;SDS011;38759;53.396;6.722;2023-04-03T16:34:55;6.97;;;1.10;;
52894;SDS011;38759;53.396;6.722;2023-04-03T16:37:21;1.25;;;0.70;;
52894;SDS011;38759;53.396;6.722;2023-04-03T16:39:47;3.63;;;1.00;;
52894;SDS011;38759;53.396;6.722;2023-04-03T16:42:13;3.35;;;0.90;;
52894;SDS011;38759;53.396;6.722;2023-04-03T16:44:38;2.20;;;0.93;;
52894;SDS011;38759;53.396;6.722;2023-04-03T16:47:05;5.88;;;0.82;;
52894;SDS011;38759;53.396;6.722;2023-04-03T16:49:32;2.17;;;0.90;;
52894;SDS011;38759;53.396;6.722;2023-04-03T16:52:02;3.38;;;0.95;;
52894;SDS011;38759;53.396;6.722;2023-04-03T16:54:30;5.07;;;0.80;;
52894;SDS011;38759;53.396;6.722;2023-04-03T16:56:56;1.33;;;0.73;;
52894;SDS011;38759;53.396;6.722;2023-04-03T16:59:22;1.80;;;0.95;;
52894;SDS011;38759;53.396;6.722;2023-04-03T17:01:47;2.72;;;1.00;;
52894;SDS011;38759;53.396;6.722;2023-04-03T17:04:13;5.55;;;0.90;;
52894;SDS011;38759;53.396;6.722;2023-04-03T17:06:39;3.47;;;1.08;;
52894;SDS011;38759;53.396;6.722;2023-04-03T17:09:05;2.42;;;1.10;;